sensor_id;sensor_type;location;lat;lon;timestamp;P1;durP1;ratioP1;P2;durP2;ratioP2
7074;SDS011;3578;51.568;6.932;2023-04-24T00:01:37;3.07;;;1.50;;
7074;SDS011;3578;51.568;6.932;2023-04-24T00:04:05;3.30;;;1.70;;
7074;SDS011;3578;51.568;6.932;2023-04-24T00:06:35;3.00;;;1.50;;
7074;SDS011;3578;51.568;6.932;2023-04-24T00:09:03;1.70;;;1.60;;
7074;SDS011;3578;51.568;6.932;2023-04-24T00:11:30;2.13;;;1.93;;
7074;SDS011;3578;51.568;6.932;2023-04-24T00:13:57;3.77;;;1.90;;
7074;SDS011;3578;51.568;6.932;2023-04-24T00:16:25;1.70;;;1.60;;
7074;SDS011;3578;51.568;6.932;2023-04-24T00:18:54;1.70;;;1.70;;
7074;SDS011;3578;51.568;6.932;2023-04-24T00:21:21;1.40;;;1.30;;
7074;SDS011;3578;51.568;6.932;2023-04-24T00:23:50;1.37;;;1.37;;
7074;SDS011;3578;51.568;6.932;2023-04-24T00:26:17;1.67;;;1.53;;
7074;SDS011;3578;51.568;6.932;2023-04-24T00:28:44;2.63;;;1.70;;
7074;SDS011;3578;51.568;6.932;2023-04-24T00:31:11;1.50;;;1.40;;
7074;SDS011;3578;51.568;6.932;2023-04-24T00:33:38;1.27;;;1.27;;
7074;SDS011;3578;51.568;6.932;2023-04-24T00:36:07;1.60;;;1.60;;
7074;SDS011;3578;51.568;6.932;2023-04-24T00:38:34;2.20;;;2.10;;
7074;SDS011;3578;51.568;6.932;2023-04-24T00:41:01;1.73;;;1.63;;
7074;SDS011;3578;51.568;6.932;2023-04-24T00:43:28;1.87;;;1.60;;
7074;SDS011;3578;51.568;6.932;2023-04-24T00:45:55;1.50;;;1.50;;
7074;SDS011;3578;51.568;6.932;2023-04-24T00:48:24;1.90;;;1.80;;
7074;SDS011;3578;51.568;6.932;2023-04-24T00:50:52;2.53;;;2.07;;
7074;SDS011;3578;51.568;6.932;2023-04-24T00:53:21;4.73;;;1.83;;
7074;SDS011;3578;51.568;6.932;2023-04-24T00:55:48;2.03;;;1.93;;
7074;SDS011;3578;51.568;6.932;2023-04-24T00:58:15;3.43;;;2.50;;
7074;SDS011;3578;51.568;6.932;2023-04-24T01:00:42;2.33;;;2.20;;
7074;SDS011;3578;51.568;6.932;2023-04-24T01:03:10;2.60;;;2.03;;
7074;SDS011;3578;51.568;6.932;2023-04-24T01:05:38;4.67;;;2.70;;
7074;SDS011;3578;51.568;6.932;2023-04-24T01:08:05;2.40;;;2.20;;
7074;SDS011;3578;51.568;6.932;2023-04-24T01:10:34;2.87;;;2.67;;
7074;SDS011;3578;51.568;6.932;2023-04-24T01:13:02;3.57;;;2.00;;
7074;SDS011;3578;51.568;6.932;2023-04-24T01:15:29;2.70;;;2.60;;
7074;SDS011;3578;51.568;6.932;2023-04-24T01:17:56;2.60;;;2.50;;
7074;SDS011;3578;51.568;6.932;2023-04-24T01:20:23;2.90;;;2.60;;
7074;SDS011;3578;51.568;6.932;2023-04-24T01:22:53;3.00;;;2.80;;
7074;SDS011;3578;51.568;6.932;2023-04-24T01:25:21;9.10;;;3.30;;
7074;SDS011;3578;51.568;6.932;2023-04-24T01:27:49;4.00;;;3.50;;
7074;SDS011;3578;51.568;6.932;2023-04-24T01:30:16;3.90;;;3.60;;
7074;SDS011;3578;51.568;6.932;2023-04-24T01:32:43;4.73;;;4.00;;
7074;SDS011;3578;51.568;6.932;2023-04-24T01:35:11;5.70;;;4.43;;
7074;SDS011;3578;51.568;6.932;2023-04-24T01:37:38;5.07;;;4.67;;
7074;SDS011;3578;51.568;6.932;2023-04-24T01:40:07;5.37;;;4.60;;
7074;SDS011;3578;51.568;6.932;2023-04-24T01:42:35;5.27;;;4.77;;
7074;SDS011;3578;51.568;6.932;2023-04-24T01:45:03;4.80;;;4.40;;
7074;SDS011;3578;51.568;6.932;2023-04-24T01:47:31;5.13;;;4.63;;
7074;SDS011;3578;51.568;6.932;2023-04-24T01:49:59;5.20;;;4.80;;
7074;SDS011;3578;51.568;6.932;2023-04-24T01:52:26;6.33;;;5.40;;
7074;SDS011;3578;51.568;6.932;2023-04-24T01:54:56;6.30;;;5.10;;
7074;SDS011;3578;51.568;6.932;2023-04-24T01:57:26;11.53;;;5.77;;
7074;SDS011;3578;51.568;6.932;2023-04-24T01:59:55;5.63;;;5.07;;
7074;SDS011;3578;51.568;6.932;2023-04-24T02:02:22;7.30;;;5.80;;
7074;SDS011;3578;51.568;6.932;2023-04-24T02:04:52;6.83;;;6.13;;
7074;SDS011;3578;51.568;6.932;2023-04-24T02:07:19;6.77;;;6.07;;
7074;SDS011;3578;51.568;6.932;2023-04-24T02:09:46;10.53;;;7.10;;
7074;SDS011;3578;51.568;6.932;2023-04-24T02:12:13;7.30;;;6.60;;
7074;SDS011;3578;51.568;6.932;2023-04-24T02:14:41;7.00;;;6.27;;
7074;SDS011;3578;51.568;6.932;2023-04-24T02:17:08;8.50;;;5.60;;
7074;SDS011;3578;51.568;6.932;2023-04-24T02:19:38;9.40;;;6.70;;
7074;SDS011;3578;51.568;6.932;2023-04-24T02:22:05;7.03;;;6.33;;
7074;SDS011;3578;51.568;6.932;2023-04-24T02:24:32;7.73;;;6.90;;
7074;SDS011;3578;51.568;6.932;2023-04-24T02:26:59;8.33;;;6.53;;
7074;SDS011;3578;51.568;6.932;2023-04-24T02:29:27;7.80;;;6.03;;
7074;SDS011;3578;51.568;6.932;2023-04-24T02:31:56;8.03;;;7.07;;
7074;SDS011;3578;51.568;6.932;2023-04-24T02:34:23;7.73;;;6.03;;
7074;SDS011;3578;51.568;6.932;2023-04-24T02:36:50;8.70;;;7.23;;
7074;SDS011;3578;51.568;6.932;2023-04-24T02:39:18;8.03;;;7.10;;
7074;SDS011;3578;51.568;6.932;2023-04-24T02:41:45;13.13;;;8.60;;
7074;SDS011;3578;51.568;6.932;2023-04-24T02:44:13;8.73;;;7.93;;
7074;SDS011;3578;51.568;6.932;2023-04-24T02:46:39;9.87;;;8.73;;
7074;SDS011;3578;51.568;6.932;2023-04-24T02:49:08;10.43;;;8.43;;
7074;SDS011;3578;51.568;6.932;2023-04-24T02:51:36;11.30;;;8.73;;
7074;SDS011;3578;51.568;6.932;2023-04-24T02:54:06;11.33;;;9.60;;
7074;SDS011;3578;51.568;6.932;2023-04-24T02:56:34;11.03;;;10.00;;
7074;SDS011;3578;51.568;6.932;2023-04-24T02:59:01;10.90;;;9.80;;
7074;SDS011;3578;51.568;6.932;2023-04-24T03:01:28;15.90;;;10.10;;
7074;SDS011;3578;51.568;6.932;2023-04-24T03:03:55;13.13;;;10.67;;
7074;SDS011;3578;51.568;6.932;2023-04-24T03:06:24;13.20;;;10.00;;
7074;SDS011;3578;51.568;6.932;2023-04-24T03:08:52;11.93;;;10.10;;
7074;SDS011;3578;51.568;6.932;2023-04-24T03:11:19;13.30;;;11.13;;
7074;SDS011;3578;51.568;6.932;2023-04-24T03:13:46;13.00;;;10.70;;
7074;SDS011;3578;51.568;6.932;2023-04-24T03:16:13;11.73;;;10.50;;
7074;SDS011;3578;51.568;6.932;2023-04-24T03:18:40;13.37;;;11.43;;
7074;SDS011;3578;51.568;6.932;2023-04-24T03:21:07;12.90;;;11.60;;
7074;SDS011;3578;51.568;6.932;2023-04-24T03:23:35;12.67;;;11.37;;
7074;SDS011;3578;51.568;6.932;2023-04-24T03:26:02;13.97;;;11.80;;
7074;SDS011;3578;51.568;6.932;2023-04-24T03:28:30;14.83;;;11.30;;
7074;SDS011;3578;51.568;6.932;2023-04-24T03:30:57;16.63;;;12.30;;
7074;SDS011;3578;51.568;6.932;2023-04-24T03:33:24;15.00;;;11.90;;
7074;SDS011;3578;51.568;6.932;2023-04-24T03:35:51;15.47;;;13.27;;
7074;SDS011;3578;51.568;6.932;2023-04-24T03:38:18;17.80;;;12.57;;
7074;SDS011;3578;51.568;6.932;2023-04-24T03:40:46;14.90;;;12.80;;
7074;SDS011;3578;51.568;6.932;2023-04-24T03:43:13;17.27;;;12.30;;
7074;SDS011;3578;51.568;6.932;2023-04-24T03:45:40;15.23;;;13.60;;
7074;SDS011;3578;51.568;6.932;2023-04-24T03:48:07;15.63;;;12.77;;
7074;SDS011;3578;51.568;6.932;2023-04-24T03:50:34;15.77;;;14.17;;
7074;SDS011;3578;51.568;6.932;2023-04-24T03:53:01;22.27;;;14.67;;
7074;SDS011;3578;51.568;6.932;2023-04-24T03:55:28;15.60;;;13.80;;
7074;SDS011;3578;51.568;6.932;2023-04-24T03:57:56;18.10;;;13.97;;
7074;SDS011;3578;51.568;6.932;2023-04-24T04:00:24;16.50;;;13.73;;
7074;SDS011;3578;51.568;6.932;2023-04-24T04:02:51;18.43;;;13.10;;
7074;SDS011;3578;51.568;6.932;2023-04-24T04:05:18;16.80;;;14.37;;
7074;SDS011;3578;51.568;6.932;2023-04-24T04:07:45;17.97;;;14.50;;
7074;SDS011;3578;51.568;6.932;2023-04-24T04:10:12;22.83;;;14.10;;
7074;SDS011;3578;51.568;6.932;2023-04-24T04:12:39;16.33;;;13.10;;
7074;SDS011;3578;51.568;6.932;2023-04-24T04:15:08;16.17;;;13.27;;
7074;SDS011;3578;51.568;6.932;2023-04-24T04:17:36;15.67;;;12.53;;
7074;SDS011;3578;51.568;6.932;2023-04-24T04:20:04;17.33;;;13.53;;
7074;SDS011;3578;51.568;6.932;2023-04-24T04:22:34;16.33;;;12.30;;
7074;SDS011;3578;51.568;6.932;2023-04-24T04:25:01;15.10;;;13.60;;
7074;SDS011;3578;51.568;6.932;2023-04-24T04:27:29;18.10;;;12.20;;
7074;SDS011;3578;51.568;6.932;2023-04-24T04:29:57;16.33;;;12.50;;
7074;SDS011;3578;51.568;6.932;2023-04-24T04:32:27;16.60;;;13.10;;
7074;SDS011;3578;51.568;6.932;2023-04-24T04:34:54;15.63;;;11.70;;
7074;SDS011;3578;51.568;6.932;2023-04-24T04:37:21;15.33;;;13.00;;
7074;SDS011;3578;51.568;6.932;2023-04-24T04:39:48;19.70;;;13.37;;
7074;SDS011;3578;51.568;6.932;2023-04-24T04:42:15;19.30;;;12.17;;
7074;SDS011;3578;51.568;6.932;2023-04-24T04:44:42;12.57;;;11.30;;
7074;SDS011;3578;51.568;6.932;2023-04-24T04:47:09;16.70;;;12.13;;
7074;SDS011;3578;51.568;6.932;2023-04-24T04:49:38;13.27;;;11.87;;
7074;SDS011;3578;51.568;6.932;2023-04-24T04:52:06;20.33;;;12.90;;
7074;SDS011;3578;51.568;6.932;2023-04-24T04:54:33;13.50;;;12.10;;
7074;SDS011;3578;51.568;6.932;2023-04-24T04:57:00;12.20;;;11.00;;
7074;SDS011;3578;51.568;6.932;2023-04-24T04:59:27;15.10;;;11.80;;
7074;SDS011;3578;51.568;6.932;2023-04-24T05:01:56;16.13;;;11.97;;
7074;SDS011;3578;51.568;6.932;2023-04-24T05:04:23;14.80;;;11.53;;
7074;SDS011;3578;51.568;6.932;2023-04-24T05:06:51;14.30;;;11.17;;
7074;SDS011;3578;51.568;6.932;2023-04-24T05:09:18;14.40;;;11.43;;
7074;SDS011;3578;51.568;6.932;2023-04-24T05:11:46;12.63;;;11.10;;
7074;SDS011;3578;51.568;6.932;2023-04-24T05:14:13;14.50;;;10.50;;
7074;SDS011;3578;51.568;6.932;2023-04-24T05:16:39;14.27;;;10.50;;
7074;SDS011;3578;51.568;6.932;2023-04-24T05:19:06;13.90;;;11.03;;
7074;SDS011;3578;51.568;6.932;2023-04-24T05:21:33;12.33;;;10.17;;
7074;SDS011;3578;51.568;6.932;2023-04-24T05:24:02;11.00;;;9.73;;
7074;SDS011;3578;51.568;6.932;2023-04-24T05:26:29;14.50;;;9.60;;
7074;SDS011;3578;51.568;6.932;2023-04-24T05:28:56;15.07;;;9.60;;
7074;SDS011;3578;51.568;6.932;2023-04-24T05:31:23;11.60;;;10.40;;
7074;SDS011;3578;51.568;6.932;2023-04-24T05:33:50;13.90;;;10.07;;
7074;SDS011;3578;51.568;6.932;2023-04-24T05:36:17;11.03;;;9.67;;
7074;SDS011;3578;51.568;6.932;2023-04-24T05:38:45;10.97;;;9.97;;
7074;SDS011;3578;51.568;6.932;2023-04-24T05:41:13;10.30;;;9.07;;
7074;SDS011;3578;51.568;6.932;2023-04-24T05:43:40;10.47;;;9.40;;
7074;SDS011;3578;51.568;6.932;2023-04-24T05:46:07;12.30;;;10.50;;
7074;SDS011;3578;51.568;6.932;2023-04-24T05:48:34;11.27;;;10.23;;
7074;SDS011;3578;51.568;6.932;2023-04-24T05:51:01;11.60;;;10.37;;
7074;SDS011;3578;51.568;6.932;2023-04-24T05:53:28;12.30;;;9.60;;
7074;SDS011;3578;51.568;6.932;2023-04-24T05:55:55;11.97;;;10.57;;
7074;SDS011;3578;51.568;6.932;2023-04-24T05:58:23;11.70;;;10.10;;
7074;SDS011;3578;51.568;6.932;2023-04-24T06:00:50;11.90;;;10.70;;
7074;SDS011;3578;51.568;6.932;2023-04-24T06:03:18;12.23;;;10.87;;
7074;SDS011;3578;51.568;6.932;2023-04-24T06:05:45;11.70;;;10.70;;
7074;SDS011;3578;51.568;6.932;2023-04-24T06:08:11;11.73;;;10.53;;
7074;SDS011;3578;51.568;6.932;2023-04-24T06:10:38;13.90;;;12.00;;
7074;SDS011;3578;51.568;6.932;2023-04-24T06:13:06;12.90;;;11.67;;
7074;SDS011;3578;51.568;6.932;2023-04-24T06:15:34;11.63;;;10.47;;
7074;SDS011;3578;51.568;6.932;2023-04-24T06:18:01;14.67;;;11.53;;
7074;SDS011;3578;51.568;6.932;2023-04-24T06:20:28;11.80;;;10.60;;
7074;SDS011;3578;51.568;6.932;2023-04-24T06:22:55;11.83;;;10.37;;
7074;SDS011;3578;51.568;6.932;2023-04-24T06:25:24;12.07;;;10.87;;
7074;SDS011;3578;51.568;6.932;2023-04-24T06:27:52;11.43;;;10.27;;
7074;SDS011;3578;51.568;6.932;2023-04-24T06:30:19;12.23;;;11.03;;
7074;SDS011;3578;51.568;6.932;2023-04-24T06:32:48;15.50;;;11.57;;
7074;SDS011;3578;51.568;6.932;2023-04-24T06:35:15;13.53;;;12.30;;
7074;SDS011;3578;51.568;6.932;2023-04-24T06:37:42;13.20;;;11.90;;
7074;SDS011;3578;51.568;6.932;2023-04-24T06:40:09;13.07;;;11.80;;
7074;SDS011;3578;51.568;6.932;2023-04-24T06:42:37;12.17;;;11.07;;
7074;SDS011;3578;51.568;6.932;2023-04-24T06:45:04;11.60;;;10.40;;
7074;SDS011;3578;51.568;6.932;2023-04-24T06:47:31;12.13;;;10.90;;
7074;SDS011;3578;51.568;6.932;2023-04-24T06:50:00;12.40;;;10.60;;
7074;SDS011;3578;51.568;6.932;2023-04-24T06:52:27;11.30;;;10.10;;
7074;SDS011;3578;51.568;6.932;2023-04-24T06:54:59;11.20;;;9.80;;
7074;SDS011;3578;51.568;6.932;2023-04-24T06:57:27;10.47;;;9.47;;
7074;SDS011;3578;51.568;6.932;2023-04-24T06:59:54;12.00;;;9.33;;
7074;SDS011;3578;51.568;6.932;2023-04-24T07:02:21;9.97;;;8.97;;
7074;SDS011;3578;51.568;6.932;2023-04-24T07:04:49;9.07;;;8.47;;
7074;SDS011;3578;51.568;6.932;2023-04-24T07:07:17;9.27;;;8.37;;
7074;SDS011;3578;51.568;6.932;2023-04-24T07:09:44;9.03;;;8.27;;
7074;SDS011;3578;51.568;6.932;2023-04-24T07:12:11;9.67;;;8.77;;
7074;SDS011;3578;51.568;6.932;2023-04-24T07:14:38;10.87;;;8.33;;
7074;SDS011;3578;51.568;6.932;2023-04-24T07:17:05;9.60;;;7.70;;
7074;SDS011;3578;51.568;6.932;2023-04-24T07:19:32;8.70;;;7.83;;
7074;SDS011;3578;51.568;6.932;2023-04-24T07:22:00;7.57;;;6.80;;
7074;SDS011;3578;51.568;6.932;2023-04-24T07:24:29;7.10;;;6.50;;
7074;SDS011;3578;51.568;6.932;2023-04-24T07:26:57;9.27;;;6.70;;
7074;SDS011;3578;51.568;6.932;2023-04-24T07:29:26;7.53;;;5.97;;
7074;SDS011;3578;51.568;6.932;2023-04-24T07:31:52;6.07;;;5.57;;
7074;SDS011;3578;51.568;6.932;2023-04-24T07:34:20;6.30;;;5.80;;
7074;SDS011;3578;51.568;6.932;2023-04-24T07:36:46;6.20;;;5.40;;
7074;SDS011;3578;51.568;6.932;2023-04-24T07:39:14;6.37;;;4.20;;
7074;SDS011;3578;51.568;6.932;2023-04-24T07:41:42;4.23;;;3.93;;
7074;SDS011;3578;51.568;6.932;2023-04-24T07:44:09;3.77;;;3.33;;
7074;SDS011;3578;51.568;6.932;2023-04-24T07:46:36;3.50;;;3.20;;
7074;SDS011;3578;51.568;6.932;2023-04-24T07:49:03;3.13;;;2.90;;
7074;SDS011;3578;51.568;6.932;2023-04-24T07:51:30;2.43;;;2.33;;
7074;SDS011;3578;51.568;6.932;2023-04-24T07:54:03;2.10;;;2.00;;
7074;SDS011;3578;51.568;6.932;2023-04-24T07:56:30;2.27;;;2.17;;
7074;SDS011;3578;51.568;6.932;2023-04-24T07:58:59;2.40;;;2.23;;
7074;SDS011;3578;51.568;6.932;2023-04-24T08:01:27;2.33;;;2.23;;
7074;SDS011;3578;51.568;6.932;2023-04-24T08:03:54;1.93;;;1.93;;
7074;SDS011;3578;51.568;6.932;2023-04-24T08:06:21;3.73;;;1.97;;
7074;SDS011;3578;51.568;6.932;2023-04-24T08:08:48;2.00;;;2.00;;
7074;SDS011;3578;51.568;6.932;2023-04-24T08:11:16;3.10;;;2.40;;
7074;SDS011;3578;51.568;6.932;2023-04-24T08:13:43;2.07;;;1.97;;
7074;SDS011;3578;51.568;6.932;2023-04-24T08:16:12;2.27;;;2.17;;
7074;SDS011;3578;51.568;6.932;2023-04-24T08:18:39;2.33;;;2.13;;
7074;SDS011;3578;51.568;6.932;2023-04-24T08:21:06;2.70;;;2.50;;
7074;SDS011;3578;51.568;6.932;2023-04-24T08:23:33;3.17;;;2.37;;
7074;SDS011;3578;51.568;6.932;2023-04-24T08:26:00;3.10;;;2.80;;
7074;SDS011;3578;51.568;6.932;2023-04-24T08:28:28;3.50;;;2.97;;
7074;SDS011;3578;51.568;6.932;2023-04-24T08:30:55;4.47;;;3.53;;
7074;SDS011;3578;51.568;6.932;2023-04-24T08:33:23;4.53;;;4.20;;
7074;SDS011;3578;51.568;6.932;2023-04-24T08:35:50;4.97;;;4.57;;
7074;SDS011;3578;51.568;6.932;2023-04-24T08:38:18;4.40;;;3.90;;
7074;SDS011;3578;51.568;6.932;2023-04-24T08:40:45;7.90;;;6.13;;
7074;SDS011;3578;51.568;6.932;2023-04-24T08:43:14;6.60;;;5.10;;
7074;SDS011;3578;51.568;6.932;2023-04-24T08:45:42;6.30;;;4.63;;
7074;SDS011;3578;51.568;6.932;2023-04-24T08:48:09;4.30;;;3.90;;
7074;SDS011;3578;51.568;6.932;2023-04-24T08:50:38;3.43;;;3.13;;
7074;SDS011;3578;51.568;6.932;2023-04-24T08:53:08;3.17;;;2.87;;
7074;SDS011;3578;51.568;6.932;2023-04-24T08:55:35;2.90;;;2.70;;
7074;SDS011;3578;51.568;6.932;2023-04-24T08:58:03;2.67;;;2.47;;
7074;SDS011;3578;51.568;6.932;2023-04-24T09:00:30;2.40;;;2.20;;
7074;SDS011;3578;51.568;6.932;2023-04-24T09:03:00;2.40;;;2.30;;
7074;SDS011;3578;51.568;6.932;2023-04-24T09:05:28;2.43;;;2.00;;
7074;SDS011;3578;51.568;6.932;2023-04-24T09:07:56;2.23;;;2.13;;
7074;SDS011;3578;51.568;6.932;2023-04-24T09:10:24;2.30;;;2.20;;
7074;SDS011;3578;51.568;6.932;2023-04-24T09:12:52;4.57;;;1.80;;
7074;SDS011;3578;51.568;6.932;2023-04-24T09:15:21;2.27;;;2.07;;
7074;SDS011;3578;51.568;6.932;2023-04-24T09:17:49;2.50;;;2.30;;
7074;SDS011;3578;51.568;6.932;2023-04-24T09:20:16;2.30;;;2.10;;
7074;SDS011;3578;51.568;6.932;2023-04-24T09:22:43;2.97;;;2.70;;
7074;SDS011;3578;51.568;6.932;2023-04-24T09:25:12;2.67;;;2.10;;
7074;SDS011;3578;51.568;6.932;2023-04-24T09:27:43;2.30;;;2.20;;
7074;SDS011;3578;51.568;6.932;2023-04-24T09:30:12;4.40;;;2.20;;
7074;SDS011;3578;51.568;6.932;2023-04-24T09:32:39;2.73;;;2.53;;
7074;SDS011;3578;51.568;6.932;2023-04-24T09:35:08;3.27;;;3.07;;
7074;SDS011;3578;51.568;6.932;2023-04-24T09:37:38;4.10;;;3.80;;
7074;SDS011;3578;51.568;6.932;2023-04-24T09:40:07;5.57;;;4.80;;
7074;SDS011;3578;51.568;6.932;2023-04-24T09:42:38;4.97;;;4.57;;
7074;SDS011;3578;51.568;6.932;2023-04-24T09:45:08;6.23;;;4.80;;
7074;SDS011;3578;51.568;6.932;2023-04-24T09:47:36;5.80;;;5.27;;
7074;SDS011;3578;51.568;6.932;2023-04-24T09:50:11;7.43;;;5.30;;
7074;SDS011;3578;51.568;6.932;2023-04-24T09:52:41;7.63;;;5.93;;
7074;SDS011;3578;51.568;6.932;2023-04-24T09:55:10;5.20;;;4.90;;
7074;SDS011;3578;51.568;6.932;2023-04-24T09:57:47;5.97;;;5.47;;
7074;SDS011;3578;51.568;6.932;2023-04-24T10:00:21;7.50;;;5.70;;
7074;SDS011;3578;51.568;6.932;2023-04-24T10:02:50;6.13;;;4.87;;
7074;SDS011;3578;51.568;6.932;2023-04-24T10:05:22;5.67;;;5.30;;
7074;SDS011;3578;51.568;6.932;2023-04-24T10:07:55;6.60;;;5.97;;
7074;SDS011;3578;51.568;6.932;2023-04-24T10:10:24;7.33;;;6.07;;
7074;SDS011;3578;51.568;6.932;2023-04-24T10:12:53;9.57;;;5.97;;
7074;SDS011;3578;51.568;6.932;2023-04-24T10:15:20;8.40;;;7.23;;
7074;SDS011;3578;51.568;6.932;2023-04-24T10:17:48;6.47;;;5.87;;
7074;SDS011;3578;51.568;6.932;2023-04-24T10:20:18;8.10;;;6.90;;
7074;SDS011;3578;51.568;6.932;2023-04-24T10:22:47;8.40;;;7.10;;
7074;SDS011;3578;51.568;6.932;2023-04-24T10:25:17;7.03;;;6.43;;
7074;SDS011;3578;51.568;6.932;2023-04-24T10:27:47;7.10;;;6.30;;
7074;SDS011;3578;51.568;6.932;2023-04-24T10:30:17;7.00;;;6.40;;
7074;SDS011;3578;51.568;6.932;2023-04-24T10:32:46;9.10;;;6.60;;
7074;SDS011;3578;51.568;6.932;2023-04-24T10:35:13;7.37;;;6.10;;
7074;SDS011;3578;51.568;6.932;2023-04-24T10:37:44;7.47;;;6.47;;
7074;SDS011;3578;51.568;6.932;2023-04-24T10:40:16;7.67;;;6.00;;
7074;SDS011;3578;51.568;6.932;2023-04-24T10:42:46;7.40;;;5.80;;
7074;SDS011;3578;51.568;6.932;2023-04-24T10:45:19;8.60;;;6.80;;
7074;SDS011;3578;51.568;6.932;2023-04-24T10:47:52;16.23;;;7.23;;
7074;SDS011;3578;51.568;6.932;2023-04-24T10:50:23;13.20;;;7.27;;
7074;SDS011;3578;51.568;6.932;2023-04-24T10:53:05;12.80;;;7.50;;
7074;SDS011;3578;51.568;6.932;2023-04-24T10:55:41;13.33;;;7.53;;
7074;SDS011;3578;51.568;6.932;2023-04-24T10:58:10;16.23;;;7.70;;
7074;SDS011;3578;51.568;6.932;2023-04-24T11:00:39;15.13;;;7.40;;
7074;SDS011;3578;51.568;6.932;2023-04-24T11:03:23;14.73;;;7.20;;
7074;SDS011;3578;51.568;6.932;2023-04-24T11:05:54;13.07;;;7.63;;
7074;SDS011;3578;51.568;6.932;2023-04-24T11:08:27;14.87;;;7.30;;
7074;SDS011;3578;51.568;6.932;2023-04-24T11:10:58;18.83;;;7.30;;
7074;SDS011;3578;51.568;6.932;2023-04-24T11:13:28;14.80;;;8.07;;
7074;SDS011;3578;51.568;6.932;2023-04-24T11:16:29;12.60;;;6.97;;
7074;SDS011;3578;51.568;6.932;2023-04-24T11:19:02;17.80;;;6.83;;
7074;SDS011;3578;51.568;6.932;2023-04-24T11:21:32;12.67;;;6.77;;
7074;SDS011;3578;51.568;6.932;2023-04-24T11:24:23;11.10;;;5.70;;
7074;SDS011;3578;51.568;6.932;2023-04-24T11:26:58;7.33;;;4.90;;
7074;SDS011;3578;51.568;6.932;2023-04-24T11:29:38;14.13;;;5.33;;
7074;SDS011;3578;51.568;6.932;2023-04-24T11:32:18;12.70;;;5.53;;
7074;SDS011;3578;51.568;6.932;2023-04-24T11:34:53;11.53;;;5.13;;
7074;SDS011;3578;51.568;6.932;2023-04-24T11:37:22;12.53;;;5.07;;
7074;SDS011;3578;51.568;6.932;2023-04-24T11:39:51;7.97;;;5.10;;
7074;SDS011;3578;51.568;6.932;2023-04-24T11:42:19;8.57;;;5.57;;
7074;SDS011;3578;51.568;6.932;2023-04-24T11:44:47;7.23;;;4.90;;
7074;SDS011;3578;51.568;6.932;2023-04-24T11:47:17;8.47;;;4.07;;
7074;SDS011;3578;51.568;6.932;2023-04-24T11:49:44;15.60;;;4.20;;
7074;SDS011;3578;51.568;6.932;2023-04-24T11:52:11;10.07;;;3.40;;
7074;SDS011;3578;51.568;6.932;2023-04-24T11:54:46;8.30;;;4.00;;
7074;SDS011;3578;51.568;6.932;2023-04-24T11:57:15;11.13;;;4.20;;
7074;SDS011;3578;51.568;6.932;2023-04-24T11:59:44;10.10;;;4.03;;
7074;SDS011;3578;51.568;6.932;2023-04-24T12:02:20;9.03;;;3.93;;
7074;SDS011;3578;51.568;6.932;2023-04-24T12:04:48;8.97;;;3.67;;
7074;SDS011;3578;51.568;6.932;2023-04-24T12:07:16;9.47;;;4.50;;
7074;SDS011;3578;51.568;6.932;2023-04-24T12:09:43;5.40;;;3.83;;
7074;SDS011;3578;51.568;6.932;2023-04-24T12:12:12;7.63;;;4.07;;
7074;SDS011;3578;51.568;6.932;2023-04-24T12:14:44;7.73;;;3.77;;
7074;SDS011;3578;51.568;6.932;2023-04-24T12:17:15;20.53;;;3.40;;
7074;SDS011;3578;51.568;6.932;2023-04-24T12:19:47;6.43;;;3.37;;
7074;SDS011;3578;51.568;6.932;2023-04-24T12:22:15;7.57;;;3.50;;
7074;SDS011;3578;51.568;6.932;2023-04-24T12:24:55;9.70;;;3.93;;
7074;SDS011;3578;51.568;6.932;2023-04-24T12:27:28;6.23;;;3.50;;
7074;SDS011;3578;51.568;6.932;2023-04-24T12:29:58;7.13;;;3.57;;
7074;SDS011;3578;51.568;6.932;2023-04-24T12:32:26;6.80;;;3.50;;
7074;SDS011;3578;51.568;6.932;2023-04-24T12:34:55;6.80;;;3.87;;
7074;SDS011;3578;51.568;6.932;2023-04-24T12:37:23;7.43;;;3.70;;
7074;SDS011;3578;51.568;6.932;2023-04-24T12:39:58;7.33;;;3.40;;
7074;SDS011;3578;51.568;6.932;2023-04-24T12:42:31;4.93;;;4.03;;
7074;SDS011;3578;51.568;6.932;2023-04-24T12:45:00;4.80;;;2.97;;
7074;SDS011;3578;51.568;6.932;2023-04-24T12:47:30;5.27;;;3.13;;
7074;SDS011;3578;51.568;6.932;2023-04-24T12:49:59;5.97;;;2.27;;
7074;SDS011;3578;51.568;6.932;2023-04-24T12:52:26;5.67;;;2.40;;
7074;SDS011;3578;51.568;6.932;2023-04-24T12:54:55;5.03;;;2.60;;
7074;SDS011;3578;51.568;6.932;2023-04-24T12:57:24;3.13;;;2.27;;
7074;SDS011;3578;51.568;6.932;2023-04-24T12:59:53;3.93;;;2.30;;
7074;SDS011;3578;51.568;6.932;2023-04-24T13:02:20;2.53;;;2.33;;
7074;SDS011;3578;51.568;6.932;2023-04-24T13:04:47;5.43;;;2.83;;
7074;SDS011;3578;51.568;6.932;2023-04-24T13:07:16;5.13;;;2.30;;
7074;SDS011;3578;51.568;6.932;2023-04-24T13:09:44;5.53;;;2.23;;
7074;SDS011;3578;51.568;6.932;2023-04-24T13:12:12;3.30;;;2.10;;
7074;SDS011;3578;51.568;6.932;2023-04-24T13:14:40;4.67;;;2.17;;
7074;SDS011;3578;51.568;6.932;2023-04-24T13:17:07;3.00;;;2.70;;
7074;SDS011;3578;51.568;6.932;2023-04-24T13:19:35;2.13;;;2.00;;
7074;SDS011;3578;51.568;6.932;2023-04-24T13:22:03;3.50;;;2.37;;
7074;SDS011;3578;51.568;6.932;2023-04-24T13:24:33;2.33;;;2.13;;
7074;SDS011;3578;51.568;6.932;2023-04-24T13:27:00;2.47;;;2.20;;
7074;SDS011;3578;51.568;6.932;2023-04-24T13:29:27;2.63;;;2.13;;
7074;SDS011;3578;51.568;6.932;2023-04-24T13:31:54;2.83;;;2.57;;
7074;SDS011;3578;51.568;6.932;2023-04-24T13:34:21;4.37;;;2.30;;
7074;SDS011;3578;51.568;6.932;2023-04-24T13:36:49;2.77;;;2.57;;
7074;SDS011;3578;51.568;6.932;2023-04-24T13:39:16;3.17;;;2.83;;
7074;SDS011;3578;51.568;6.932;2023-04-24T13:41:45;4.23;;;2.83;;
7074;SDS011;3578;51.568;6.932;2023-04-24T13:44:13;2.60;;;2.20;;
7074;SDS011;3578;51.568;6.932;2023-04-24T13:46:41;2.50;;;2.30;;
7074;SDS011;3578;51.568;6.932;2023-04-24T13:49:10;2.63;;;2.17;;
7074;SDS011;3578;51.568;6.932;2023-04-24T13:51:37;6.33;;;2.40;;
7074;SDS011;3578;51.568;6.932;2023-04-24T13:54:05;3.50;;;2.70;;
7074;SDS011;3578;51.568;6.932;2023-04-24T13:56:32;3.17;;;2.27;;
7074;SDS011;3578;51.568;6.932;2023-04-24T13:59:01;4.10;;;2.27;;
7074;SDS011;3578;51.568;6.932;2023-04-24T14:01:28;2.63;;;2.43;;
7074;SDS011;3578;51.568;6.932;2023-04-24T14:03:55;3.43;;;2.70;;
7074;SDS011;3578;51.568;6.932;2023-04-24T14:06:22;3.70;;;2.57;;
7074;SDS011;3578;51.568;6.932;2023-04-24T14:08:50;3.13;;;2.40;;
7074;SDS011;3578;51.568;6.932;2023-04-24T14:11:17;2.90;;;2.70;;
7074;SDS011;3578;51.568;6.932;2023-04-24T14:13:45;2.40;;;2.20;;
7074;SDS011;3578;51.568;6.932;2023-04-24T14:16:14;4.50;;;2.30;;
7074;SDS011;3578;51.568;6.932;2023-04-24T14:18:41;3.10;;;2.40;;
7074;SDS011;3578;51.568;6.932;2023-04-24T14:21:08;4.37;;;2.43;;
7074;SDS011;3578;51.568;6.932;2023-04-24T14:23:35;2.60;;;2.20;;
7074;SDS011;3578;51.568;6.932;2023-04-24T14:26:02;3.67;;;2.47;;
7074;SDS011;3578;51.568;6.932;2023-04-24T14:28:29;4.80;;;2.70;;
7074;SDS011;3578;51.568;6.932;2023-04-24T14:30:56;6.50;;;3.93;;
7074;SDS011;3578;51.568;6.932;2023-04-24T14:33:24;3.53;;;3.00;;
7074;SDS011;3578;51.568;6.932;2023-04-24T14:35:51;3.37;;;3.10;;
7074;SDS011;3578;51.568;6.932;2023-04-24T14:38:18;4.33;;;3.93;;
7074;SDS011;3578;51.568;6.932;2023-04-24T14:40:45;5.00;;;4.07;;
7074;SDS011;3578;51.568;6.932;2023-04-24T14:43:13;5.40;;;3.70;;
7074;SDS011;3578;51.568;6.932;2023-04-24T14:45:39;4.83;;;4.17;;
7074;SDS011;3578;51.568;6.932;2023-04-24T14:48:07;7.20;;;4.50;;
7074;SDS011;3578;51.568;6.932;2023-04-24T14:50:35;4.30;;;3.50;;
7074;SDS011;3578;51.568;6.932;2023-04-24T14:53:02;3.97;;;3.50;;
7074;SDS011;3578;51.568;6.932;2023-04-24T14:55:29;4.50;;;3.47;;
7074;SDS011;3578;51.568;6.932;2023-04-24T14:57:57;3.87;;;3.27;;
7074;SDS011;3578;51.568;6.932;2023-04-24T15:00:24;2.23;;;2.03;;
7074;SDS011;3578;51.568;6.932;2023-04-24T15:02:51;2.47;;;2.27;;
7074;SDS011;3578;51.568;6.932;2023-04-24T15:05:20;2.30;;;2.10;;
7074;SDS011;3578;51.568;6.932;2023-04-24T15:07:49;1.93;;;1.83;;
7074;SDS011;3578;51.568;6.932;2023-04-24T15:10:16;2.87;;;2.07;;
7074;SDS011;3578;51.568;6.932;2023-04-24T15:12:43;3.57;;;1.77;;
7074;SDS011;3578;51.568;6.932;2023-04-24T15:15:10;3.07;;;1.90;;